San Sebastian, Spain

11:22 PM CEST on August 29, 2016 (GMT +0200)
Francia - Hendaye | | Change Station

Elev 30 ft 43.35 °N, 1.78 °W | Updated 23 seconds ago

Overcast
Overcast
70.7 °F
Feels Like 74 °F
N
1.0
Wind Variable Wind from NE
Gusts 6.0 mph

Today
High -- | Low -- °F
--% Chance of Precip.
Yesterday
High -- | Low -- °F
Precip. -- in
Pressure 30.27 in
Visibility 6.2 miles
Clouds Few 2500 ft
Few 3200 ft
Overcast 6500 ft
Heat Index 74 °F
Dew Point 61 °F
Humidity 72%
Rainfall in
Snow Depth Not available.
7:28 AM 8:46 PM
Waning Crescent, 7% visible
METAR LESO 292100Z AUTO VRB02KT 9999 FEW025/// FEW032/// OVC065/// 22/16 Q1025
Pressure 30.27 in
Visibility 6.2 miles
Clouds Few 2500 ft
Few 3200 ft
Overcast 6500 ft
Heat Index 74 °F
Dew Point 61 °F
Humidity 72%
Rainfall in
Snow Depth Not available.
7:28 AM 8:46 PM
Waning Crescent, 7% visible
METAR LESO 292100Z AUTO VRB02KT 9999 FEW025/// FEW032/// OVC065/// 22/16 Q1025

10-Day Weather Forecast

×

Almanac

Astronomy

Aug. 29, 2016 Rise Set
Actual Time
Civil Twilight
Nautical Twilight
Astronomical Twilight
Moon
Length of Visible Light
Length of Day
Tomorrow will be .
, % of the Moon is Illuminated

Today's Extremes

Country Highs Country Lows

Community

WunderPhotos

Upload Photos

1,935,679 photos uploaded!

WunderBlog® & News

Nearby

Air Quality

  Air Quality AQ Index Pollutant
Not available.

Snow Depth

Station Depth Elevation

Earthquake Activity

City Distance Mag. Time & Date
Minimum magnitude displayed is 2.5.

Coastal Water Temperatures

Place Temperature

Stations

Nearby Weather Stations

Station Location Temp. Windchill Dew Point Humidity Wind Precip. Elev Updated Type